Flight Track Log - Related Links

Times and Time Zones

All times are in EDT time to prevent confusion due to time zone crossing. See the EJA583 flight status page for this flight to view local times or setup timezone preferences in your user account.

Time Position Orientation Groundspeed Altitude Reporting Facility
EDT Latitude Longitude Course Direction KTS MPH feet Rate Location/Type
Tue 08:23:25 PM 37.6667 -122.3167 80° East 221 254 4,000  Level Northern Cal TRACON
Tue 08:24:25 PM 37.7167 -122.2667 38° Northeast 251 289 6,800 2,721 Climbing Northern Cal TRACON
Tue 08:26:17 PM 37.7800 -122.1239 61° Northeast 273 314 11,800 2,621 Climbing Oakland Center
Tue 08:27:19 PM 37.8042 -122.0308 72° East 277 319 14,400 2,537 Climbing Oakland Center
Tue 08:28:00 PM 37.7375 -121.5342 80° East  Level Estimated
Tue 08:28:20 PM 37.8306 -121.9342 71° East 289 333 17,000  Level Oakland Center
Tue 08:29:22 PM 37.8569 -121.8336 72° East 300 345 19,700 2,537 Climbing Oakland Center
Tue 08:30:23 PM 37.8844 -121.7289 72° East 311 358 22,200 2,488 Climbing Oakland Center
Tue 08:31:25 PM 37.9125 -121.6250 71° East 314 361 24,800 2,537 Climbing Oakland Center
Tue 08:32:26 PM 37.9392 -121.5197 72° East 315 362 27,400 2,390 Climbing Oakland Center
Tue 08:33:28 PM 37.9700 -121.4031 71° East 319 367 29,700 2,146 Climbing Oakland Center
Tue 08:34:29 PM 37.9992 -121.2922 72° East 330 380 31,800 2,016 Climbing Oakland Center
Tue 08:35:30 PM 38.0275 -121.1808 72° East 334 384 33,800 1,756 Climbing Oakland Center
Tue 08:36:32 PM 38.0569 -121.0681 72° East 339 390 35,400 1,512 Climbing Oakland Center
Tue 08:37:33 PM 38.0833 -120.9250 77° East 351 404 36,900 878 Climbing Oakland Center
Tue 08:38:35 PM 38.1019 -120.7961 80° East 369 425 37,200 683 Climbing Oakland Center
Tue 08:39:36 PM 38.1192 -120.6608 81° East 387 445 38,300 1,082 Climbing Oakland Center
Tue 08:40:37 PM 38.1375 -120.5269 80° East 388 447 39,400 1,122 Climbing Oakland Center
Tue 08:41:39 PM 38.1544 -120.3942 81° East 383 441 40,600 780 Climbing Oakland Center
Tue 08:42:40 PM 38.1717 -120.2619 81° East 381 438 41,000 197 Climbing Oakland Center
Tue 08:43:41 PM 38.1906 -120.1219 80° East 399 459 41,000  Level Oakland Center
Tue 08:44:43 PM 38.2103 -119.9769 80° East 414 476 41,000  Level Oakland Center
Tue 08:45:44 PM 38.2328 -119.8006 81° East 422 486 41,000  Level Oakland Center
Tue 08:46:46 PM 38.2508 -119.6514 81° East 427 491 41,000  Level Oakland Center
Tue 08:47:47 PM 38.2692 -119.5025 81° East 427 491 41,000  Level Oakland Center
Tue 08:48:49 PM 38.2853 -119.3622 82° East 429 494 41,000  Level Oakland Center
Tue 08:49:50 PM 38.3044 -119.2139 81° East 428 493 41,000  Level Oakland Center
Tue 08:50:51 PM 38.3253 -119.0336 82° East 430 495 41,000  Level Oakland Center
Tue 08:51:53 PM 38.3433 -118.8869 81° East 424 488 41,000  Level Oakland Center
Tue 08:52:54 PM 38.3611 -118.7381 81° East 426 490 41,000  Level Oakland Center
Tue 08:53:55 PM 38.3786 -118.5906 81° East 424 488 41,000  Level Oakland Center
Tue 08:54:57 PM 38.3944 -118.4458 82° East 418 481 41,000  Level Oakland Center
Tue 08:55:58 PM 38.4117 -118.2997 81° East 418 481 41,000  Level Oakland Center
Tue 08:57:00 PM 38.4278 -118.1542 82° East 417 480 41,000  Level Oakland Center
Tue 08:58:01 PM 38.4444 -118.0014 82° East 416 479 41,000  Level Oakland Center
Tue 08:59:02 PM 38.4608 -117.8553 82° East 416 479 41,000  Level Oakland Center
Tue 09:00:04 PM 38.4772 -117.7075 82° East 417 480 41,000  Level Oakland Center
Tue 09:01:05 PM 38.4919 -117.5600 83° East 418 481 41,000  Level Oakland Center
Tue 09:02:07 PM 38.5081 -117.4119 82° East 418 481 41,000  Level Oakland Center
Tue 09:03:08 PM 38.5228 -117.2633 83° East 419 482 41,000  Level Oakland Center
Tue 09:04:22 PM 38.5433 -117.0544 83° East 420 483 41,000  Level Salt Lake Center
Tue 09:05:24 PM 38.5572 -116.9058 83° East 419 482 41,000  Level Salt Lake Center
Tue 09:06:12 PM 38.5697 -116.7878 82° East 418 481 41,000  Level Oakland Center
Tue 09:07:13 PM 38.5842 -116.6375 83° East 423 487 41,000  Level Oakland Center
Tue 09:08:15 PM 38.5983 -116.4886 83° East 421 484 41,000  Level Oakland Center
Tue 09:09:16 PM 38.6122 -116.3386 83° East 424 488 41,000  Level Oakland Center
Tue 09:10:18 PM 38.6253 -116.1883 84° East 424 488 41,000  Level Oakland Center
Tue 09:11:19 PM 38.6392 -116.0381 83° East 425 489 41,000  Level Oakland Center
Tue 09:12:35 PM 38.6544 -115.8578 84° East 426 490 41,000  Level Salt Lake Center
Tue 09:13:37 PM 38.6694 -115.6758 84° East 428 493 41,000  Level Salt Lake Center
Tue 09:14:38 PM 38.6831 -115.5244 83° East 428 493 41,000  Level Salt Lake Center
Tue 09:15:40 PM 38.6961 -115.3736 84° East 427 491 41,000  Level Salt Lake Center
Tue 09:16:42 PM 38.7086 -115.2139 84° East 426 490 41,000  Level Salt Lake Center
Tue 09:17:43 PM 38.7217 -115.0622 84° East 429 494 41,000  Level Salt Lake Center
Tue 09:18:45 PM 38.7353 -114.9100 83° East 430 495 41,000  Level Salt Lake Center
Tue 09:19:46 PM 38.7472 -114.7578 84° East 430 495 41,000  Level Salt Lake Center
Tue 09:20:48 PM 38.7594 -114.6069 84° East 428 493 41,000  Level Salt Lake Center
Tue 09:21:49 PM 38.7700 -114.4564 85° East 427 491 41,000  Level Salt Lake Center
Tue 09:22:51 PM 38.7817 -114.3042 84° East 428 493 41,000  Level Salt Lake Center
Tue 09:23:53 PM 38.7956 -114.1197 84° East 431 496 41,000  Level Salt Lake Center
Tue 09:24:54 PM 38.8064 -113.9658 85° East 432 497 41,000  Level Salt Lake Center
Tue 09:25:55 PM 38.8172 -113.8111 85° East 435 501 41,000  Level Salt Lake Center
Tue 09:26:57 PM 38.8278 -113.6569 85° East 434 499 41,000  Level Salt Lake Center
Tue 09:27:59 PM 38.8383 -113.5042 85° East 431 496 41,000  Level Salt Lake Center
Tue 09:29:00 PM 38.8492 -113.3494 85° East 434 499 41,000  Level Salt Lake Center
Tue 09:30:02 PM 38.8586 -113.1989 85° East 427 491 41,000  Level Salt Lake Center
Tue 09:31:03 PM 38.8686 -113.0439 85° East 433 498 41,000  Level Salt Lake Center
Tue 09:32:05 PM 38.8783 -112.8878 85° East 438 504 41,000  Level Salt Lake Center
Tue 09:33:06 PM 38.8892 -112.7047 86° East 430 495 41,000  Level Salt Lake Center
Tue 09:34:08 PM 38.8981 -112.5489 86° East 435 501 41,000  Level Salt Lake Center
Tue 09:35:09 PM 38.9083 -112.3950 85° East 433 498 41,000  Level Salt Lake Center
Tue 09:36:10 PM 38.9167 -112.2400 86° East 435 501 41,000  Level Salt Lake Center
Tue 09:37:12 PM 38.9250 -112.0867 86° East 432 497 41,000  Level Salt Lake Center
Tue 09:38:13 PM 38.9342 -111.9325 86° East 433 498 41,000  Level Salt Lake Center
Tue 09:39:15 PM 38.9422 -111.7783 86° East 433 498 41,000  Level Salt Lake Center
Tue 09:40:16 PM 38.9497 -111.6236 86° East 434 499 41,000  Level Salt Lake Center
Tue 09:41:18 PM 38.9578 -111.4708 86° East 431 496 41,000  Level Salt Lake Center
Tue 09:42:19 PM 38.9656 -111.3144 86° East 438 504 41,000  Level Salt Lake Center
Tue 09:43:20 PM 38.9750 -111.1275 86° East 438 504 41,000  Level Salt Lake Center
Tue 09:44:22 PM 38.9794 -110.9736 88° East 439 505 41,000  Level Salt Lake Center
Tue 09:45:23 PM 38.9867 -110.8239 86° East 439 505 41,000  Level Salt Lake Center
Tue 09:46:25 PM 38.9936 -110.6481 87° East 441 507 41,000  Level Salt Lake Center
Tue 09:47:26 PM 39.0008 -110.4997 86° East 438 504 41,000  Level Salt Lake Center
Tue 09:48:27 PM 38.9869 -110.3508 97° East 437 503 41,000  Level Salt Lake Center
Tue 09:49:28 PM 38.9711 -110.1803 97° East 432 497 41,000  Level Salt Lake Center
Tue 09:50:30 PM 38.9572 -110.0403 97° East 418 481 41,000  Level Salt Lake Center
Tue 09:51:31 PM 38.9417 -109.8828 97° East 403 464 41,000  Level Salt Lake Center
Tue 09:52:32 PM 38.9286 -109.7433 97° East 408 470 41,000  Level Salt Lake Center
Tue 09:53:34 PM 38.9114 -109.5778 98° East 419 482 41,000  Level Salt Lake Center
Tue 09:54:35 PM 38.8961 -109.4356 98° East 421 484 41,000  Level Salt Lake Center
Tue 09:55:14 PM 38.8883 -109.3614 98° East 423 487 41,000  Level Denver Center
Tue 09:56:16 PM 38.8681 -109.1656 98° East 433 498 41,000  Level Denver Center
Tue 09:57:18 PM 38.8522 -109.0175 98° East 440 506 41,000  Level Denver Center
Tue 09:58:19 PM 38.8372 -108.8711 97° East 436 502 41,000  Level Denver Center
Tue 09:59:20 PM 38.8194 -108.7028 98° East 428 493 41,000  Level Denver Center
Tue 10:00:22 PM 38.8036 -108.5592 98° East 427 491 41,000  Level Denver Center
Tue 10:01:23 PM 38.7853 -108.3944 98° East 422 486 41,000  Level Denver Center
Tue 10:02:25 PM 38.7697 -108.2522 98° East 422 486 41,000  Level Denver Center
Tue 10:03:26 PM 38.7542 -108.1111 98° East 421 484 41,000  Level Denver Center
Tue 10:04:28 PM 38.7358 -107.9444 98° East 424 488 41,000  Level Denver Center
Tue 10:05:29 PM 38.7192 -107.8036 99° East 421 484 41,000  Level Denver Center
Tue 10:06:30 PM 38.7006 -107.6361 98° East 424 488 41,000  Level Denver Center
Tue 10:07:32 PM 38.6825 -107.4925 99° East 427 491 41,000  Level Denver Center
Tue 10:08:33 PM 38.6619 -107.3239 99° East 430 495 41,000 -197 Level Denver Center
Tue 10:09:34 PM 38.6444 -107.1778 99° East 434 499 40,600 -683 Descending Denver Center
Tue 10:10:36 PM 38.6286 -107.0397 98° East 440 506 39,600 -1,366 Descending Denver Center
Tue 10:11:37 PM 38.6047 -106.8494 99° East 452 520 37,800 -1,561 Descending Denver Center
Tue 10:12:39 PM 38.5842 -106.6922 99° East 451 519 36,400 -1,415 Descending Denver Center
Tue 10:13:40 PM 38.5664 -106.5403 98° East 440 506 34,900 -1,279 Descending Denver Center
Tue 10:14:41 PM 38.5494 -106.4217 100° East 431 496 33,800 -1,415 Descending Denver Center
Tue 10:15:43 PM 38.5256 -106.2394 99° East 433 498 32,000 -1,610 Descending Denver Center
Tue 10:16:44 PM 38.5067 -106.0836 99° East 431 496 30,500 -1,512 Descending Denver Center
Tue 10:17:46 PM 38.4856 -105.9139 99° East 432 497 28,900 -1,500 Descending Denver Center
Tue 10:18:48 PM 38.4636 -105.7539 100° East 440 506 27,400 -927 Descending Denver Center
Tue 10:19:49 PM 38.4422 -105.5997 100° East 443 510 27,000 -787 Descending Denver Center
Tue 10:20:50 PM 38.4225 -105.4508 100° East 431 496 25,800 -1,463 Descending Denver Center
Tue 10:21:52 PM 38.4050 -105.3286 100° East 436 502 24,000 -2,293 Descending Denver Center
Tue 10:22:53 PM 38.3806 -105.1414 99° East 420 483 21,100 -2,390 Descending Denver Center
Tue 10:23:55 PM 38.3606 -105.0072 101° East 407 468 19,100 -2,182 Descending Denver Center
Tue 10:24:21 PM 38.3508 -104.9511 102° East 391 450 17,900 -1,869 Descending Denver Center
Tue 10:24:56 PM 38.3442 -104.8819 97° East 385 443 17,200 -1,813 Descending Denver Center
Tue 10:25:57 PM 38.3247 -104.7431 100° East 364 419 15,000 -1,561 Descending Denver Center
Tue 10:26:59 PM 38.3889 -104.6539 47° Northeast 390 449 14,000 -488 Descending Denver Center
Tue 10:28:00 PM 38.5058 -104.6453 North 378 435 14,000 -289 Level Denver Center
Tue 10:28:22 PM 38.5367 -104.6456 360° North 376 433 13,600 -1,180 Descending Denver Center
Tue 10:29:01 PM 38.6028 -104.6375 North 369 425 12,800 -1,188 Descending Denver Center
Tue 10:30:03 PM 38.6969 -104.6286 North 359 413 11,600 -1,317 Descending Denver Center
Tue 10:31:04 PM 38.7997 -104.6156 North 332 382 10,100 -1,220 Descending Denver Center
Tue 10:32:06 PM 38.8689 -104.6106 North 280 322 9,100 -987 Descending Denver Center
Tue 10:32:23 PM 38.8833 -104.6319 311° West 252 290 8,800 -787 Descending Denver Center
Tue 10:33:07 PM 38.8917 -104.6847 281° West 237 273 8,300 -629 Descending Denver Center
Tue 10:34:08 PM 38.8642 -104.7258 229° Southwest 204 235 7,700 -590 Descending Denver Center
Tue 10:36:00 PM 38.8000 -104.7000 205° Southwest  Level FlightAware Approximate

Login

Don't have an account? Register now (free) for customized features, flight alerts, and more!